createdAt,value
2017-03-23T00:00:15.022Z,0
2017-03-23T00:01:15.626Z,0
2017-03-23T00:02:16.231Z,0
2017-03-23T00:03:16.835Z,0
2017-03-23T00:04:17.444Z,0
2017-03-23T00:05:18.047Z,0
2017-03-23T00:06:18.653Z,0
2017-03-23T00:07:19.264Z,0
2017-03-23T00:08:19.865Z,0
2017-03-23T00:09:20.469Z,0
2017-03-23T00:10:21.081Z,0
2017-03-23T00:11:21.691Z,0
2017-03-23T00:12:22.294Z,0
2017-03-23T00:13:22.901Z,0
2017-03-23T00:14:23.503Z,0
2017-03-23T00:15:24.108Z,0
2017-03-23T00:16:24.717Z,0
2017-03-23T00:17:25.353Z,0
2017-03-23T00:18:25.960Z,0
2017-03-23T00:19:26.562Z,0
2017-03-23T00:20:27.168Z,0
2017-03-23T00:21:27.775Z,0
2017-03-23T00:22:28.386Z,0
2017-03-23T00:23:28.989Z,0
2017-03-23T00:24:29.631Z,0
2017-03-23T00:25:30.234Z,0
2017-03-23T00:26:30.840Z,0
2017-03-23T00:27:31.453Z,0
2017-03-23T00:28:32.054Z,0
2017-03-23T00:29:32.658Z,0
2017-03-23T00:30:33.263Z,0
2017-03-23T00:31:33.868Z,0
2017-03-23T00:32:34.470Z,0
2017-03-23T00:33:35.074Z,0
2017-03-23T00:34:35.679Z,0
2017-03-23T00:35:36.283Z,0
2017-03-23T00:36:36.886Z,0
2017-03-23T00:37:37.491Z,0
2017-03-23T00:38:38.095Z,0
2017-03-23T00:39:38.701Z,0
2017-03-23T00:40:39.310Z,0
2017-03-23T00:41:39.913Z,0
2017-03-23T00:42:40.521Z,0
2017-03-23T00:43:41.123Z,0
2017-03-23T00:44:41.733Z,0
2017-03-23T00:45:42.334Z,0
2017-03-23T00:46:42.938Z,0
2017-03-23T00:47:43.541Z,0
2017-03-23T00:48:44.152Z,0
2017-03-23T00:49:44.749Z,0
2017-03-23T00:50:45.358Z,0
2017-03-23T00:51:45.957Z,0
2017-03-23T00:52:46.566Z,0
2017-03-23T00:53:47.168Z,0
2017-03-23T00:54:47.770Z,0
2017-03-23T00:55:48.374Z,0
2017-03-23T00:56:48.978Z,0
2017-03-23T00:57:49.590Z,0
2017-03-23T00:58:50.189Z,0
2017-03-23T00:59:50.795Z,0
2017-03-23T01:00:51.402Z,0
2017-03-23T01:01:52.007Z,0
2017-03-23T01:02:52.618Z,0
2017-03-23T01:03:53.221Z,0
2017-03-23T01:04:53.834Z,0
2017-03-23T01:05:54.430Z,0
2017-03-23T01:06:55.035Z,0
2017-03-23T01:07:55.643Z,0
2017-03-23T01:08:56.246Z,0
2017-03-23T01:09:56.856Z,0
2017-03-23T01:10:57.507Z,0
2017-03-23T01:11:58.111Z,0
2017-03-23T01:12:58.718Z,0
2017-03-23T01:13:59.321Z,0
2017-03-23T01:14:59.923Z,0
2017-03-23T01:16:00.529Z,0
2017-03-23T01:17:01.183Z,0
2017-03-23T01:18:01.789Z,0
2017-03-23T01:19:02.401Z,0
2017-03-23T01:20:03.004Z,0
2017-03-23T01:21:03.608Z,0
2017-03-23T01:22:04.212Z,0
2017-03-23T01:23:04.816Z,0
2017-03-23T01:24:05.426Z,0
2017-03-23T01:25:06.027Z,0
2017-03-23T01:26:06.637Z,0
2017-03-23T01:27:07.238Z,0
2017-03-23T01:28:07.847Z,0
2017-03-23T01:29:08.451Z,0
2017-03-23T01:30:09.055Z,0
2017-03-23T01:31:09.665Z,0
2017-03-23T01:32:10.299Z,0
2017-03-23T01:33:10.909Z,0
2017-03-23T01:34:11.511Z,0
2017-03-23T01:35:12.116Z,0
2017-03-23T01:36:12.720Z,0
2017-03-23T01:37:13.324Z,0
2017-03-23T01:38:13.928Z,0
2017-03-23T01:39:14.532Z,0
2017-03-23T01:40:15.135Z,0
2017-03-23T01:41:15.744Z,0
2017-03-23T01:42:16.346Z,0
2017-03-23T01:43:16.949Z,0
2017-03-23T01:44:17.553Z,0
2017-03-23T01:45:18.156Z,0
2017-03-23T01:46:18.761Z,0
2017-03-23T01:47:19.365Z,0
2017-03-23T01:48:19.970Z,0
2017-03-23T01:49:20.578Z,0
2017-03-23T01:50:21.180Z,0
2017-03-23T01:51:21.785Z,0
2017-03-23T01:52:22.388Z,0
2017-03-23T01:53:22.991Z,0
2017-03-23T01:54:23.597Z,0
2017-03-23T01:55:24.201Z,0
2017-03-23T01:56:24.839Z,0
2017-03-23T01:57:25.408Z,0
2017-03-23T01:58:26.012Z,0
2017-03-23T01:59:26.617Z,0
2017-03-23T02:00:27.221Z,0
2017-03-23T02:01:27.826Z,0
2017-03-23T02:02:28.433Z,0
2017-03-23T02:03:29.038Z,0
2017-03-23T02:04:29.644Z,0
2017-03-23T02:05:30.255Z,0
2017-03-23T02:06:30.862Z,0
2017-03-23T02:07:31.469Z,0
2017-03-23T02:08:32.071Z,0
2017-03-23T02:09:32.673Z,0
2017-03-23T02:10:33.277Z,0
2017-03-23T02:11:33.881Z,0
2017-03-23T02:12:34.536Z,0
2017-03-23T02:13:35.141Z,0
2017-03-23T02:14:35.746Z,0
2017-03-23T02:15:36.355Z,0
2017-03-23T02:16:36.962Z,0
2017-03-23T02:17:37.563Z,0
2017-03-23T02:18:38.167Z,0
2017-03-23T02:19:38.771Z,0
2017-03-23T02:20:39.376Z,0
2017-03-23T02:21:39.979Z,0
2017-03-23T02:22:40.582Z,0
2017-03-23T02:23:41.266Z,0
2017-03-23T02:24:41.871Z,0
2017-03-23T02:25:42.474Z,0
2017-03-23T02:26:43.077Z,0
2017-03-23T02:27:43.682Z,0
2017-03-23T02:28:44.284Z,0
2017-03-23T02:29:44.889Z,0
2017-03-23T02:30:45.499Z,0
2017-03-23T02:31:46.100Z,0
2017-03-23T02:32:46.704Z,0
2017-03-23T02:33:47.307Z,0
2017-03-23T02:34:47.917Z,0
2017-03-23T02:35:48.518Z,0
2017-03-23T02:36:49.128Z,0
2017-03-23T02:37:49.730Z,0
2017-03-23T02:38:50.336Z,0
2017-03-23T02:39:50.941Z,0
2017-03-23T02:40:51.548Z,0
2017-03-23T02:41:52.155Z,0
2017-03-23T02:42:52.765Z,0
2017-03-23T02:43:53.366Z,0
2017-03-23T02:44:53.977Z,0
2017-03-23T02:45:54.577Z,0
2017-03-23T02:46:55.184Z,0
2017-03-23T02:47:55.791Z,0
2017-03-23T02:48:56.394Z,0
2017-03-23T02:49:57.000Z,0
2017-03-23T02:50:57.635Z,0
2017-03-23T02:51:58.244Z,0
2017-03-23T02:52:58.845Z,0
2017-03-23T02:53:59.455Z,0
2017-03-23T02:55:00.058Z,0
2017-03-23T02:56:00.667Z,0
2017-03-23T02:57:01.320Z,0
2017-03-23T02:58:01.929Z,0
2017-03-23T02:59:02.564Z,0
2017-03-23T03:00:03.168Z,0
2017-03-23T03:01:03.773Z,0
2017-03-23T03:02:04.378Z,0
2017-03-23T03:03:04.982Z,0
2017-03-23T03:04:05.586Z,0
2017-03-23T03:05:06.191Z,0
2017-03-23T03:06:06.800Z,0
2017-03-23T03:07:07.401Z,0
2017-03-23T03:08:08.012Z,0
2017-03-23T03:09:08.620Z,0
2017-03-23T03:10:09.220Z,0
2017-03-23T03:11:09.829Z,0
2017-03-23T03:12:10.436Z,0
2017-03-23T03:13:11.040Z,0
2017-03-23T03:14:11.647Z,0
2017-03-23T03:15:12.255Z,0
2017-03-23T03:16:12.857Z,0
2017-03-23T03:17:13.463Z,0
2017-03-23T03:18:14.068Z,0
2017-03-23T03:19:14.677Z,0
2017-03-23T03:20:15.278Z,0
2017-03-23T03:21:15.883Z,0
2017-03-23T03:22:16.518Z,0
2017-03-23T03:23:17.124Z,0
2017-03-23T03:24:17.729Z,0
2017-03-23T03:25:18.366Z,0
2017-03-23T03:26:18.973Z,0
2017-03-23T03:27:19.579Z,0
2017-03-23T03:28:20.187Z,0
2017-03-23T03:29:20.791Z,0
2017-03-23T03:30:21.400Z,0
2017-03-23T03:31:22.005Z,0
2017-03-23T03:32:22.616Z,0
2017-03-23T03:33:23.213Z,0
2017-03-23T03:34:23.819Z,0
2017-03-23T03:35:24.421Z,0
2017-03-23T03:36:25.034Z,0
2017-03-23T03:37:25.641Z,0
2017-03-23T03:38:26.244Z,0
2017-03-23T03:39:26.850Z,0
2017-03-23T03:40:27.454Z,0
2017-03-23T03:41:28.064Z,0
2017-03-23T03:42:28.667Z,0
2017-03-23T03:43:29.271Z,0
2017-03-23T03:44:29.875Z,0
2017-03-23T03:45:30.511Z,0
2017-03-23T03:46:31.086Z,0
2017-03-23T03:47:31.720Z,0
2017-03-23T03:48:32.329Z,0
2017-03-23T03:49:32.939Z,0
2017-03-23T03:50:33.540Z,0
2017-03-23T03:51:34.145Z,0
2017-03-23T03:52:34.749Z,0
2017-03-23T03:53:35.354Z,0
2017-03-23T03:54:35.971Z,0
2017-03-23T03:55:36.571Z,0
2017-03-23T03:56:37.175Z,0
2017-03-23T03:57:37.778Z,0
2017-03-23T03:58:38.381Z,0
2017-03-23T03:59:38.991Z,0
2017-03-23T04:00:39.594Z,0
2017-03-23T04:01:40.201Z,0
2017-03-23T04:02:40.808Z,0
2017-03-23T04:03:41.413Z,0
2017-03-23T04:04:42.021Z,0
2017-03-23T04:05:42.624Z,0
2017-03-23T04:06:43.236Z,0
2017-03-23T04:07:43.836Z,0
2017-03-23T04:08:44.443Z,0
2017-03-23T04:09:45.045Z,0
2017-03-23T04:10:45.651Z,0
2017-03-23T04:11:46.256Z,0
2017-03-23T04:12:46.858Z,0
2017-03-23T04:13:47.463Z,0
2017-03-23T04:14:48.068Z,0
2017-03-23T04:15:48.671Z,0
2017-03-23T04:16:49.276Z,0
2017-03-23T04:17:49.879Z,0
2017-03-23T04:18:50.489Z,0
2017-03-23T04:19:51.091Z,0
2017-03-23T04:20:51.702Z,0
2017-03-23T04:21:52.304Z,0
2017-03-23T04:22:52.909Z,0
2017-03-23T04:23:53.543Z,0
2017-03-23T04:24:54.148Z,0
2017-03-23T04:25:54.753Z,0
2017-03-23T04:26:55.356Z,0
2017-03-23T04:27:55.993Z,0
2017-03-23T04:28:56.598Z,0
2017-03-23T04:29:57.211Z,0
2017-03-23T04:30:57.817Z,0
2017-03-23T04:31:58.419Z,0
2017-03-23T04:32:59.024Z,0
2017-03-23T04:33:59.661Z,0
2017-03-23T04:35:00.268Z,0
2017-03-23T04:36:00.874Z,0
2017-03-23T04:37:01.478Z,0
2017-03-23T04:38:02.083Z,0
2017-03-23T04:39:02.687Z,0
2017-03-23T04:40:03.292Z,0
2017-03-23T04:41:03.896Z,0
2017-03-23T04:42:04.500Z,0
2017-03-23T04:43:05.109Z,0
2017-03-23T04:44:05.713Z,0
2017-03-23T04:45:06.320Z,0
2017-03-23T04:46:06.929Z,0
2017-03-23T04:47:07.536Z,0
2017-03-23T04:48:08.143Z,0
2017-03-23T04:49:08.744Z,0
2017-03-23T04:50:09.394Z,0
2017-03-23T04:51:09.959Z,0
2017-03-23T04:52:10.594Z,0
2017-03-23T04:53:11.197Z,0
2017-03-23T04:54:11.802Z,0
2017-03-23T04:55:12.411Z,0
2017-03-23T04:56:13.011Z,4
2017-03-23T04:57:13.621Z,0
2017-03-23T04:58:14.222Z,4
2017-03-23T04:59:14.832Z,4
2017-03-23T05:00:15.434Z,4
2017-03-23T05:01:16.039Z,4
2017-03-23T05:02:16.643Z,8
2017-03-23T05:03:17.281Z,4
2017-03-23T05:04:17.881Z,4
2017-03-23T05:05:18.487Z,8
2017-03-23T05:06:19.091Z,8
2017-03-23T05:07:19.696Z,12
2017-03-23T05:08:20.300Z,12
2017-03-23T05:09:20.907Z,12
2017-03-23T05:10:21.515Z,16
2017-03-23T05:11:22.117Z,16
2017-03-23T05:12:22.831Z,16
2017-03-23T05:13:23.435Z,16
2017-03-23T05:14:24.041Z,16
2017-03-23T05:15:24.646Z,20
2017-03-23T05:16:25.252Z,24
2017-03-23T05:17:25.876Z,28
2017-03-23T05:18:26.500Z,28
2017-03-23T05:19:27.112Z,32
2017-03-23T05:20:27.714Z,36
2017-03-23T05:21:28.320Z,44
2017-03-23T05:22:28.926Z,48
2017-03-23T05:23:29.531Z,52
2017-03-23T05:24:30.138Z,60
2017-03-23T05:25:30.743Z,64
2017-03-23T05:26:31.353Z,80
2017-03-23T05:27:31.960Z,96
2017-03-23T05:28:32.568Z,108
2017-03-23T05:29:33.174Z,112
2017-03-23T05:30:33.783Z,108
2017-03-23T05:31:34.391Z,108
2017-03-23T05:32:34.996Z,120
2017-03-23T05:33:35.602Z,136
2017-03-23T05:34:36.209Z,148
2017-03-23T05:35:36.822Z,164
2017-03-23T05:36:37.428Z,172
2017-03-23T05:37:38.039Z,172
2017-03-23T05:38:38.644Z,176
2017-03-23T05:39:39.255Z,208
2017-03-23T05:40:39.864Z,260
2017-03-23T05:41:40.473Z,304
2017-03-23T05:42:41.111Z,312
2017-03-23T05:43:41.720Z,324
2017-03-23T05:44:42.332Z,348
2017-03-23T05:45:42.934Z,364
2017-03-23T05:46:43.549Z,380
2017-03-23T05:47:44.154Z,400
2017-03-23T05:48:44.763Z,444
2017-03-23T05:49:45.370Z,468
2017-03-23T05:50:45.977Z,460
2017-03-23T05:51:46.585Z,516
2017-03-23T05:52:47.199Z,476
2017-03-23T05:53:47.805Z,480
2017-03-23T05:54:48.417Z,432
2017-03-23T05:55:49.029Z,424
2017-03-23T05:56:49.633Z,452
2017-03-23T05:57:50.242Z,532
2017-03-23T05:58:50.850Z,592
2017-03-23T05:59:51.462Z,652
2017-03-23T06:00:52.102Z,676
2017-03-23T06:01:52.711Z,676
2017-03-23T06:02:53.320Z,688
2017-03-23T06:03:53.936Z,728
2017-03-23T06:04:54.540Z,788
2017-03-23T06:05:55.147Z,728
2017-03-23T06:06:55.757Z,708
2017-03-23T06:07:56.363Z,744
2017-03-23T06:08:56.972Z,760
2017-03-23T06:09:57.580Z,772
2017-03-23T06:10:58.188Z,812
2017-03-23T06:11:58.799Z,840
2017-03-23T06:12:59.413Z,832
2017-03-23T06:14:00.020Z,820
2017-03-23T06:15:00.627Z,860
2017-03-23T06:16:01.235Z,984
2017-03-23T06:17:01.844Z,1192
2017-03-23T06:18:02.453Z,1292
2017-03-23T06:19:03.061Z,980
2017-03-23T06:20:03.672Z,736
2017-03-23T06:21:04.282Z,652
2017-03-23T06:22:04.896Z,660
2017-03-23T06:23:05.501Z,692
2017-03-23T06:24:06.114Z,728
2017-03-23T06:25:06.719Z,816
2017-03-23T06:26:07.326Z,848
2017-03-23T06:27:07.963Z,960
2017-03-23T06:28:08.574Z,1092
2017-03-23T06:29:09.188Z,1172
2017-03-23T06:30:09.825Z,1720
2017-03-23T06:31:10.433Z,1716
2017-03-23T06:32:11.048Z,2068
2017-03-23T06:33:11.657Z,2664
2017-03-23T06:34:12.269Z,2764
2017-03-23T06:35:12.878Z,2792
2017-03-23T06:36:13.489Z,2892
2017-03-23T06:37:14.097Z,3168
2017-03-23T06:38:14.714Z,4728
2017-03-23T06:39:15.327Z,5128
2017-03-23T06:40:15.936Z,3224
2017-03-23T06:41:16.546Z,2196
2017-03-23T06:42:17.163Z,2124
2017-03-23T06:43:17.776Z,2564
2017-03-23T06:44:18.390Z,3188
2017-03-23T06:45:19.004Z,1548
2017-03-23T06:46:19.612Z,1408
2017-03-23T06:47:20.254Z,1552
2017-03-23T06:48:20.865Z,2200
2017-03-23T06:49:21.481Z,2800
2017-03-23T06:50:22.097Z,2308
2017-03-23T06:51:22.733Z,1572
2017-03-23T06:52:23.343Z,1324
2017-03-23T06:53:23.954Z,1460
2017-03-23T06:54:24.592Z,1804
2017-03-23T06:55:25.204Z,3092
2017-03-23T06:56:25.815Z,3500
2017-03-23T06:57:26.424Z,3272
2017-03-23T06:58:27.037Z,3688
2017-03-23T06:59:27.657Z,4888
2017-03-23T07:00:28.267Z,5172
2017-03-23T07:01:28.921Z,5104
2017-03-23T07:02:29.489Z,3992
2017-03-23T07:03:30.105Z,3552
2017-03-23T07:04:30.714Z,2928
2017-03-23T07:05:31.333Z,2536
2017-03-23T07:06:31.941Z,2180
2017-03-23T07:07:32.554Z,2344
2017-03-23T07:08:33.169Z,1824
2017-03-23T07:09:33.776Z,1604
2017-03-23T07:10:34.387Z,1956
2017-03-23T07:11:35.003Z,2424
2017-03-23T07:12:35.613Z,4576
2017-03-23T07:13:36.231Z,2964
2017-03-23T07:14:36.839Z,3436
2017-03-23T07:15:37.481Z,2812
2017-03-23T07:16:38.092Z,2648
2017-03-23T07:17:38.708Z,3400
2017-03-23T07:18:39.318Z,2648
2017-03-23T07:19:39.932Z,2692
2017-03-23T07:20:40.543Z,3032
2017-03-23T07:21:41.156Z,2284
2017-03-23T07:22:41.766Z,1700
2017-03-23T07:23:42.377Z,1656
2017-03-23T07:24:42.993Z,1456
2017-03-23T07:25:43.606Z,1464
2017-03-23T07:26:44.220Z,1504
2017-03-23T07:27:44.827Z,1640
2017-03-23T07:28:45.444Z,1804
2017-03-23T07:29:46.053Z,2044
2017-03-23T07:30:46.663Z,1796
2017-03-23T07:31:47.272Z,1728
2017-03-23T07:32:47.884Z,2020
2017-03-23T07:33:48.497Z,2304
2017-03-23T07:34:49.108Z,2172
2017-03-23T07:35:49.725Z,1972
2017-03-23T07:36:50.340Z,2892
2017-03-23T07:37:50.948Z,2028
2017-03-23T07:38:51.559Z,1988
2017-03-23T07:39:52.172Z,2092
2017-03-23T07:40:52.784Z,3072
2017-03-23T07:41:53.396Z,6436
2017-03-23T07:42:54.016Z,3148
2017-03-23T07:43:54.628Z,2676
2017-03-23T07:44:55.237Z,2404
2017-03-23T07:45:55.850Z,2328
2017-03-23T07:46:56.461Z,2228
2017-03-23T07:47:57.073Z,2244
2017-03-23T07:48:57.686Z,2272
2017-03-23T07:49:58.327Z,2332
2017-03-23T07:50:58.941Z,2316
2017-03-23T07:51:59.548Z,2416
2017-03-23T07:53:00.160Z,2268
2017-03-23T07:54:00.772Z,1948
2017-03-23T07:55:01.386Z,1860
2017-03-23T07:56:02.004Z,2096
2017-03-23T07:57:02.613Z,2376
2017-03-23T07:58:03.229Z,2428
2017-03-23T07:59:03.876Z,2264
2017-03-23T08:00:04.482Z,2196
2017-03-23T08:01:05.091Z,1996
2017-03-23T08:02:05.709Z,1888
2017-03-23T08:03:06.318Z,1948
2017-03-23T08:04:06.932Z,1980
2017-03-23T08:05:07.538Z,2044
2017-03-23T08:06:08.154Z,2104
2017-03-23T08:07:08.762Z,2092
2017-03-23T08:08:09.371Z,2036
2017-03-23T08:09:09.983Z,1976
2017-03-23T08:10:10.601Z,1956
2017-03-23T08:11:11.208Z,1964
2017-03-23T08:12:11.870Z,1996
2017-03-23T08:13:12.481Z,2156
2017-03-23T08:14:13.099Z,2492
2017-03-23T08:15:13.709Z,3156
2017-03-23T08:16:14.319Z,4084
2017-03-23T08:17:14.934Z,5780
2017-03-23T08:18:15.577Z,7228
2017-03-23T08:19:16.153Z,7444
2017-03-23T08:20:16.764Z,5344
2017-03-23T08:21:17.378Z,4224
2017-03-23T08:22:17.991Z,4220
2017-03-23T08:23:18.603Z,4320
2017-03-23T08:24:19.216Z,7536
2017-03-23T08:25:19.828Z,3624
2017-03-23T08:26:20.439Z,6056
2017-03-23T08:27:21.052Z,3808
2017-03-23T08:28:21.664Z,4156
2017-03-23T08:29:22.283Z,6112
2017-03-23T08:30:22.893Z,15252
2017-03-23T08:31:23.506Z,4044
2017-03-23T08:32:24.123Z,3432
2017-03-23T08:33:24.732Z,3520
2017-03-23T08:34:25.351Z,4308
2017-03-23T08:35:25.967Z,4588
2017-03-23T08:36:26.576Z,4144
2017-03-23T08:37:27.207Z,4428
2017-03-23T08:38:27.812Z,6504
2017-03-23T08:39:28.455Z,7496
2017-03-23T08:40:29.067Z,7056
2017-03-23T08:41:29.681Z,6984
2017-03-23T08:42:30.295Z,7392
2017-03-23T08:43:30.908Z,6680
2017-03-23T08:44:31.522Z,5420
2017-03-23T08:45:32.163Z,5096
2017-03-23T08:46:32.783Z,4628
2017-03-23T08:47:33.401Z,4300
2017-03-23T08:48:34.041Z,4304
2017-03-23T08:49:34.687Z,4860
2017-03-23T08:50:35.296Z,5240
2017-03-23T08:51:35.915Z,5536
2017-03-23T08:52:36.527Z,6616
2017-03-23T08:53:37.143Z,9708
2017-03-23T08:54:37.757Z,7404
2017-03-23T08:55:38.371Z,8044
2017-03-23T08:56:38.984Z,6756
2017-03-23T08:57:39.597Z,5308
2017-03-23T08:58:40.210Z,5724
2017-03-23T08:59:40.827Z,6352
2017-03-23T09:00:41.440Z,6948
2017-03-23T09:01:42.055Z,15340
2017-03-23T09:02:42.668Z,6308
2017-03-23T09:03:43.287Z,5824
2017-03-23T09:04:43.898Z,6212
2017-03-23T09:05:44.513Z,7220
2017-03-23T09:06:45.131Z,10972
2017-03-23T09:07:45.743Z,8908
2017-03-23T09:08:46.364Z,8080
2017-03-23T09:09:46.977Z,10268
2017-03-23T09:10:47.591Z,11408
2017-03-23T09:11:48.211Z,13204
2017-03-23T09:12:48.838Z,6408
2017-03-23T09:13:49.439Z,5608
2017-03-23T09:14:50.054Z,4904
2017-03-23T09:15:50.674Z,4784
2017-03-23T09:16:51.286Z,4552
2017-03-23T09:17:51.904Z,4692
2017-03-23T09:18:52.519Z,5236
2017-03-23T09:19:53.137Z,5264
2017-03-23T09:20:53.749Z,5356
2017-03-23T09:21:54.367Z,5328
2017-03-23T09:22:54.984Z,5468
2017-03-23T09:23:55.603Z,5500
2017-03-23T09:24:56.220Z,5456
2017-03-23T09:25:56.832Z,5336
2017-03-23T09:26:57.452Z,5416
2017-03-23T09:27:58.063Z,5536
2017-03-23T09:28:58.686Z,5796
2017-03-23T09:29:59.349Z,5404
2017-03-23T09:30:59.965Z,5076
2017-03-23T09:32:00.585Z,4992
2017-03-23T09:33:01.206Z,5180
2017-03-23T09:34:01.816Z,5216
2017-03-23T09:35:02.431Z,5316
2017-03-23T09:36:03.044Z,5224
2017-03-23T09:37:03.659Z,5052
2017-03-23T09:38:04.277Z,4832
2017-03-23T09:39:04.948Z,4728
2017-03-23T09:40:05.554Z,4904
2017-03-23T09:41:06.169Z,5052
2017-03-23T09:42:06.789Z,5060
2017-03-23T09:43:07.406Z,5104
2017-03-23T09:44:08.016Z,4812
2017-03-23T09:45:08.632Z,4552
2017-03-23T09:46:09.299Z,4588
2017-03-23T09:47:09.944Z,4768
2017-03-23T09:48:10.559Z,4608
2017-03-23T09:49:11.180Z,4476
2017-03-23T09:50:11.797Z,4468
2017-03-23T09:51:12.415Z,4516
2017-03-23T09:52:13.027Z,4404
2017-03-23T09:53:13.643Z,4244
2017-03-23T09:54:14.257Z,4172
2017-03-23T09:55:14.871Z,4132
2017-03-23T09:56:15.491Z,4316
2017-03-23T09:57:16.105Z,4716
2017-03-23T09:58:16.727Z,5052
2017-03-23T09:59:17.343Z,5076
2017-03-23T10:00:17.956Z,4912
2017-03-23T10:01:18.570Z,4740
2017-03-23T10:02:19.185Z,4732
2017-03-23T10:03:19.807Z,4796
2017-03-23T10:04:20.502Z,4888
2017-03-23T10:05:21.122Z,5060
2017-03-23T10:06:21.734Z,5164
2017-03-23T10:07:22.353Z,5052
2017-03-23T10:08:22.966Z,5068
2017-03-23T10:09:23.582Z,5344
2017-03-23T10:10:24.201Z,5940
2017-03-23T10:11:24.815Z,6000
2017-03-23T10:12:25.434Z,6040
2017-03-23T10:13:26.045Z,5672
2017-03-23T10:14:26.666Z,5304
2017-03-23T10:15:27.327Z,5228
2017-03-23T10:16:27.953Z,5296
2017-03-23T10:17:28.558Z,5392
2017-03-23T10:18:29.173Z,5564
2017-03-23T10:19:29.794Z,5888
2017-03-23T10:20:30.411Z,5660
2017-03-23T10:21:31.025Z,5216
2017-03-23T10:22:31.638Z,5372
2017-03-23T10:23:32.260Z,5672
2017-03-23T10:24:32.874Z,5832
2017-03-23T10:25:33.494Z,5812
2017-03-23T10:26:34.112Z,5788
2017-03-23T10:27:34.728Z,5712
2017-03-23T10:28:35.390Z,6204
2017-03-23T10:29:36.006Z,6500
2017-03-23T10:30:36.621Z,6204
2017-03-23T10:31:37.274Z,5996
2017-03-23T10:32:37.884Z,6060
2017-03-23T10:33:38.502Z,6948
2017-03-23T10:34:39.115Z,8152
2017-03-23T10:35:39.731Z,9616
2017-03-23T10:36:40.346Z,9564
2017-03-23T10:37:40.969Z,11820
2017-03-23T10:38:41.591Z,100352
2017-03-23T10:39:42.205Z,7388
2017-03-23T10:40:42.857Z,6440
2017-03-23T10:41:43.469Z,5952
2017-03-23T10:42:44.086Z,5640
2017-03-23T10:43:44.733Z,5984
2017-03-23T10:44:45.349Z,6604
2017-03-23T10:45:45.972Z,7296
2017-03-23T10:46:46.591Z,9180
2017-03-23T10:47:47.206Z,11236
2017-03-23T10:48:47.823Z,21952
2017-03-23T10:49:48.442Z,96416
2017-03-23T10:50:49.066Z,110880
2017-03-23T10:51:49.693Z,13532
2017-03-23T10:52:50.309Z,13768
2017-03-23T10:53:50.928Z,13140
2017-03-23T10:54:51.549Z,15028
2017-03-23T10:55:52.173Z,21888
2017-03-23T10:56:52.795Z,35616
2017-03-23T10:57:53.422Z,12988
2017-03-23T10:58:54.041Z,10400
2017-03-23T10:59:54.670Z,10424
2017-03-23T11:00:55.287Z,9108
2017-03-23T11:01:55.909Z,8700
2017-03-23T11:02:56.529Z,9492
2017-03-23T11:03:57.152Z,13688
2017-03-23T11:04:57.779Z,18592
2017-03-23T11:05:58.402Z,108896
2017-03-23T11:06:59.076Z,118816
2017-03-23T11:07:59.703Z,50336
2017-03-23T11:09:00.325Z,8864
2017-03-23T11:10:00.948Z,9296
2017-03-23T11:11:01.574Z,10996
2017-03-23T11:12:02.200Z,13428
2017-03-23T11:13:02.827Z,43840
2017-03-23T11:14:03.456Z,8840
2017-03-23T11:15:04.090Z,9432
2017-03-23T11:16:04.707Z,10588
2017-03-23T11:17:05.337Z,13064
2017-03-23T11:18:05.965Z,36832
2017-03-23T11:19:06.600Z,59168
2017-03-23T11:20:07.225Z,7720
2017-03-23T11:21:07.842Z,7728
2017-03-23T11:22:08.464Z,7368
2017-03-23T11:23:09.087Z,8732
2017-03-23T11:24:09.712Z,14488
2017-03-23T11:25:10.336Z,9908
2017-03-23T11:26:10.962Z,7072
2017-03-23T11:27:11.584Z,7068
2017-03-23T11:28:12.206Z,7640
2017-03-23T11:29:12.835Z,8976
2017-03-23T11:30:13.461Z,7696
2017-03-23T11:31:14.082Z,7508
2017-03-23T11:32:14.705Z,7188
2017-03-23T11:33:15.328Z,6780
2017-03-23T11:34:15.950Z,6968
2017-03-23T11:35:16.570Z,7408
2017-03-23T11:36:17.192Z,7128
2017-03-23T11:37:17.814Z,7224
2017-03-23T11:38:18.441Z,7388
2017-03-23T11:39:19.065Z,7548
2017-03-23T11:40:19.688Z,7504
2017-03-23T11:41:20.310Z,7056
2017-03-23T11:42:20.930Z,7148
2017-03-23T11:43:21.553Z,7824
2017-03-23T11:44:22.178Z,8932
2017-03-23T11:45:22.796Z,8120
2017-03-23T11:46:23.422Z,8180
2017-03-23T11:47:24.045Z,7780
2017-03-23T11:48:24.663Z,7324
2017-03-23T11:49:25.283Z,7084
2017-03-23T11:50:25.907Z,7708
2017-03-23T11:51:26.576Z,8492
2017-03-23T11:52:27.245Z,8932
2017-03-23T11:53:27.866Z,9856
2017-03-23T11:54:28.485Z,8540
2017-03-23T11:55:29.107Z,7552
2017-03-23T11:56:29.726Z,6968
2017-03-23T11:57:30.344Z,6780
2017-03-23T11:58:30.966Z,6864
2017-03-23T11:59:31.585Z,6396
2017-03-23T12:00:32.204Z,6468
2017-03-23T12:01:32.824Z,6404
2017-03-23T12:02:33.444Z,6784
2017-03-23T12:03:34.114Z,7148
2017-03-23T12:04:34.787Z,7080
2017-03-23T12:05:35.404Z,7496
2017-03-23T12:06:36.024Z,8400
2017-03-23T12:07:36.645Z,10132
2017-03-23T12:08:37.263Z,11704
2017-03-23T12:09:37.885Z,11576
2017-03-23T12:10:38.507Z,11728
2017-03-23T12:11:39.129Z,11916
2017-03-23T12:12:39.754Z,14024
2017-03-23T12:13:40.401Z,11152
2017-03-23T12:14:40.990Z,10784
2017-03-23T12:15:41.619Z,11340
2017-03-23T12:16:42.234Z,12696
2017-03-23T12:17:42.857Z,14000
2017-03-23T12:18:43.482Z,13444
2017-03-23T12:19:44.101Z,12600
2017-03-23T12:20:44.753Z,13880
2017-03-23T12:21:45.376Z,13312
2017-03-23T12:22:45.995Z,11556
2017-03-23T12:23:46.616Z,10624
2017-03-23T12:24:47.244Z,10996
2017-03-23T12:25:47.861Z,12888
2017-03-23T12:26:48.484Z,13564
2017-03-23T12:27:49.108Z,11248
2017-03-23T12:28:49.783Z,11460
2017-03-23T12:29:50.407Z,12996
2017-03-23T12:30:51.032Z,12828
2017-03-23T12:31:51.657Z,11520
2017-03-23T12:32:52.278Z,10156
2017-03-23T12:33:52.897Z,10732
2017-03-23T12:34:53.521Z,10228
2017-03-23T12:35:54.146Z,8272
2017-03-23T12:36:54.796Z,8868
2017-03-23T12:37:55.418Z,9940
2017-03-23T12:38:56.043Z,10436
2017-03-23T12:39:56.661Z,9856
2017-03-23T12:40:57.284Z,9720
2017-03-23T12:41:57.907Z,10820
2017-03-23T12:42:58.526Z,9028
2017-03-23T12:43:59.147Z,8016
2017-03-23T12:44:59.768Z,9012
2017-03-23T12:46:00.391Z,11060
2017-03-23T12:47:01.019Z,10268
2017-03-23T12:48:01.638Z,9592
2017-03-23T12:49:02.261Z,10340
2017-03-23T12:50:02.930Z,8196
2017-03-23T12:51:03.553Z,8220
2017-03-23T12:52:04.178Z,8048
2017-03-23T12:53:04.799Z,6872
2017-03-23T12:54:05.422Z,6408
2017-03-23T12:55:06.041Z,6368
2017-03-23T12:56:06.662Z,6280
2017-03-23T12:57:07.282Z,6432
2017-03-23T12:58:07.903Z,6180
2017-03-23T12:59:08.523Z,5928
2017-03-23T13:00:09.152Z,5924
2017-03-23T13:01:09.771Z,5756
2017-03-23T13:02:10.387Z,6108
2017-03-23T13:03:11.006Z,6852
2017-03-23T13:04:11.625Z,8108
2017-03-23T13:05:12.247Z,12720
2017-03-23T13:06:12.870Z,18880
2017-03-23T13:07:13.490Z,8680
2017-03-23T13:08:14.112Z,8584
2017-03-23T13:09:14.730Z,8208
2017-03-23T13:10:15.349Z,9008
2017-03-23T13:11:15.971Z,8940
2017-03-23T13:12:16.593Z,9876
2017-03-23T13:13:17.213Z,21824
2017-03-23T13:14:17.834Z,9140
2017-03-23T13:15:18.454Z,9160
2017-03-23T13:16:19.075Z,8456
2017-03-23T13:17:19.696Z,7464
2017-03-23T13:18:20.317Z,6872
2017-03-23T13:19:20.937Z,6496
2017-03-23T13:20:21.563Z,6416
2017-03-23T13:21:22.181Z,6392
2017-03-23T13:22:22.801Z,6540
2017-03-23T13:23:23.432Z,6980
2017-03-23T13:24:24.051Z,7260
2017-03-23T13:25:24.669Z,6704
2017-03-23T13:26:25.289Z,6520
2017-03-23T13:27:25.916Z,6356
2017-03-23T13:28:26.532Z,6200
2017-03-23T13:29:27.152Z,5904
2017-03-23T13:30:27.777Z,5920
2017-03-23T13:31:28.394Z,6012
2017-03-23T13:32:29.044Z,5948
2017-03-23T13:33:29.669Z,5992
2017-03-23T13:34:30.286Z,6188
2017-03-23T13:35:30.910Z,6492
2017-03-23T13:36:31.528Z,6536
2017-03-23T13:37:32.147Z,6924
2017-03-23T13:38:32.765Z,8084
2017-03-23T13:39:33.387Z,8504
2017-03-23T13:40:34.013Z,7856
2017-03-23T13:41:34.629Z,7624
2017-03-23T13:42:35.255Z,7652
2017-03-23T13:43:35.905Z,7616
2017-03-23T13:44:36.530Z,7124
2017-03-23T13:45:37.147Z,6696
2017-03-23T13:46:37.772Z,6176
2017-03-23T13:47:38.386Z,6192
2017-03-23T13:48:39.005Z,6284
2017-03-23T13:49:39.623Z,6152
2017-03-23T13:50:40.240Z,5796
2017-03-23T13:51:40.866Z,5832
2017-03-23T13:52:41.481Z,5852
2017-03-23T13:53:42.099Z,5604
2017-03-23T13:54:42.726Z,5256
2017-03-23T13:55:43.340Z,4952
2017-03-23T13:56:43.963Z,4872
2017-03-23T13:57:44.581Z,4832